sensor_id;sensor_type;location;lat;lon;timestamp;P1;durP1;ratioP1;P2;durP2;ratioP2
43345;SDS011;28937;51.160;4.146;2023-04-21T00:00:52;6.63;;;6.03;;
43345;SDS011;28937;51.160;4.146;2023-04-21T00:03:18;6.50;;;5.85;;
43345;SDS011;28937;51.160;4.146;2023-04-21T00:05:46;6.05;;;5.55;;
43345;SDS011;28937;51.160;4.146;2023-04-21T00:08:12;5.85;;;5.28;;
43345;SDS011;28937;51.160;4.146;2023-04-21T00:10:38;7.03;;;6.32;;
43345;SDS011;28937;51.160;4.146;2023-04-21T00:13:04;7.00;;;6.40;;
43345;SDS011;28937;51.160;4.146;2023-04-21T00:15:29;7.32;;;6.68;;
43345;SDS011;28937;51.160;4.146;2023-04-21T00:17:55;6.45;;;5.85;;
43345;SDS011;28937;51.160;4.146;2023-04-21T00:20:22;6.18;;;5.60;;
43345;SDS011;28937;51.160;4.146;2023-04-21T00:22:48;6.90;;;6.30;;
43345;SDS011;28937;51.160;4.146;2023-04-21T00:25:14;7.35;;;6.65;;
43345;SDS011;28937;51.160;4.146;2023-04-21T00:27:40;7.00;;;6.28;;
43345;SDS011;28937;51.160;4.146;2023-04-21T00:30:06;7.00;;;6.30;;
43345;SDS011;28937;51.160;4.146;2023-04-21T00:32:32;6.65;;;6.15;;
43345;SDS011;28937;51.160;4.146;2023-04-21T00:34:57;6.50;;;5.90;;
43345;SDS011;28937;51.160;4.146;2023-04-21T00:37:23;6.80;;;6.20;;
43345;SDS011;28937;51.160;4.146;2023-04-21T00:39:49;7.30;;;6.15;;
43345;SDS011;28937;51.160;4.146;2023-04-21T00:42:15;9.15;;;6.45;;
43345;SDS011;28937;51.160;4.146;2023-04-21T00:44:41;9.30;;;5.72;;
43345;SDS011;28937;51.160;4.146;2023-04-21T00:47:06;6.35;;;5.85;;
43345;SDS011;28937;51.160;4.146;2023-04-21T00:49:32;7.15;;;6.15;;
43345;SDS011;28937;51.160;4.146;2023-04-21T00:51:58;7.75;;;6.55;;
43345;SDS011;28937;51.160;4.146;2023-04-21T00:54:24;7.25;;;6.47;;
43345;SDS011;28937;51.160;4.146;2023-04-21T00:56:51;6.63;;;6.03;;
43345;SDS011;28937;51.160;4.146;2023-04-21T00:59:17;7.30;;;6.70;;
43345;SDS011;28937;51.160;4.146;2023-04-21T01:01:42;7.78;;;7.07;;
43345;SDS011;28937;51.160;4.146;2023-04-21T01:04:08;6.78;;;6.18;;
43345;SDS011;28937;51.160;4.146;2023-04-21T01:06:34;7.88;;;7.22;;
43345;SDS011;28937;51.160;4.146;2023-04-21T01:09:00;8.10;;;7.40;;
43345;SDS011;28937;51.160;4.146;2023-04-21T01:11:26;8.20;;;7.32;;
43345;SDS011;28937;51.160;4.146;2023-04-21T01:13:52;7.32;;;6.63;;
43345;SDS011;28937;51.160;4.146;2023-04-21T01:16:18;7.25;;;6.65;;
43345;SDS011;28937;51.160;4.146;2023-04-21T01:18:45;7.70;;;7.07;;
43345;SDS011;28937;51.160;4.146;2023-04-21T01:21:12;7.47;;;6.80;;
43345;SDS011;28937;51.160;4.146;2023-04-21T01:23:41;8.20;;;7.50;;
43345;SDS011;28937;51.160;4.146;2023-04-21T01:26:07;9.27;;;7.07;;
43345;SDS011;28937;51.160;4.146;2023-04-21T01:28:33;8.40;;;7.70;;
43345;SDS011;28937;51.160;4.146;2023-04-21T01:30:59;7.93;;;7.22;;
43345;SDS011;28937;51.160;4.146;2023-04-21T01:33:24;6.85;;;6.18;;
43345;SDS011;28937;51.160;4.146;2023-04-21T01:35:50;7.15;;;6.55;;
43345;SDS011;28937;51.160;4.146;2023-04-21T01:38:16;7.95;;;7.22;;
43345;SDS011;28937;51.160;4.146;2023-04-21T01:40:43;7.72;;;7.10;;
43345;SDS011;28937;51.160;4.146;2023-04-21T01:43:11;9.45;;;8.63;;
43345;SDS011;28937;51.160;4.146;2023-04-21T01:45:39;8.95;;;8.15;;
43345;SDS011;28937;51.160;4.146;2023-04-21T01:48:04;9.65;;;8.85;;
43345;SDS011;28937;51.160;4.146;2023-04-21T01:50:30;8.25;;;7.65;;
43345;SDS011;28937;51.160;4.146;2023-04-21T01:52:56;9.45;;;8.45;;
43345;SDS011;28937;51.160;4.146;2023-04-21T01:55:21;8.13;;;7.43;;
43345;SDS011;28937;51.160;4.146;2023-04-21T01:57:47;9.68;;;8.85;;
43345;SDS011;28937;51.160;4.146;2023-04-21T02:00:13;9.20;;;8.30;;
43345;SDS011;28937;51.160;4.146;2023-04-21T02:02:38;10.43;;;9.43;;
43345;SDS011;28937;51.160;4.146;2023-04-21T02:05:04;10.57;;;9.02;;
43345;SDS011;28937;51.160;4.146;2023-04-21T02:07:30;10.38;;;9.48;;
43345;SDS011;28937;51.160;4.146;2023-04-21T02:09:56;11.55;;;10.43;;
43345;SDS011;28937;51.160;4.146;2023-04-21T02:12:21;10.90;;;10.00;;
43345;SDS011;28937;51.160;4.146;2023-04-21T02:14:47;11.45;;;10.35;;
43345;SDS011;28937;51.160;4.146;2023-04-21T02:17:13;10.48;;;9.55;;
43345;SDS011;28937;51.160;4.146;2023-04-21T02:19:39;9.65;;;8.75;;
43345;SDS011;28937;51.160;4.146;2023-04-21T02:22:05;14.10;;;12.80;;
43345;SDS011;28937;51.160;4.146;2023-04-21T02:24:32;11.48;;;10.48;;
43345;SDS011;28937;51.160;4.146;2023-04-21T02:26:58;11.82;;;10.82;;
43345;SDS011;28937;51.160;4.146;2023-04-21T02:29:24;12.30;;;11.20;;
43345;SDS011;28937;51.160;4.146;2023-04-21T02:31:49;13.55;;;12.27;;
43345;SDS011;28937;51.160;4.146;2023-04-21T02:34:15;12.15;;;10.95;;
43345;SDS011;28937;51.160;4.146;2023-04-21T02:36:41;13.13;;;11.55;;
43345;SDS011;28937;51.160;4.146;2023-04-21T02:39:07;12.30;;;11.18;;
43345;SDS011;28937;51.160;4.146;2023-04-21T02:41:32;15.23;;;13.93;;
43345;SDS011;28937;51.160;4.146;2023-04-21T02:43:58;14.25;;;12.85;;
43345;SDS011;28937;51.160;4.146;2023-04-21T02:46:24;14.43;;;13.02;;
43345;SDS011;28937;51.160;4.146;2023-04-21T02:48:49;16.17;;;14.68;;
43345;SDS011;28937;51.160;4.146;2023-04-21T02:51:15;16.25;;;14.85;;
43345;SDS011;28937;51.160;4.146;2023-04-21T02:53:41;14.98;;;13.68;;
43345;SDS011;28937;51.160;4.146;2023-04-21T02:56:07;14.15;;;12.93;;
43345;SDS011;28937;51.160;4.146;2023-04-21T02:58:33;13.13;;;11.98;;
43345;SDS011;28937;51.160;4.146;2023-04-21T03:01:00;12.63;;;11.52;;
43345;SDS011;28937;51.160;4.146;2023-04-21T03:03:26;13.43;;;12.20;;
43345;SDS011;28937;51.160;4.146;2023-04-21T03:06:02;14.57;;;13.30;;
43345;SDS011;28937;51.160;4.146;2023-04-21T03:08:28;16.38;;;14.88;;
43345;SDS011;28937;51.160;4.146;2023-04-21T03:10:55;15.65;;;14.25;;
43345;SDS011;28937;51.160;4.146;2023-04-21T03:13:21;14.60;;;13.30;;
43345;SDS011;28937;51.160;4.146;2023-04-21T03:15:48;14.55;;;13.18;;
43345;SDS011;28937;51.160;4.146;2023-04-21T03:18:14;14.25;;;13.05;;
43345;SDS011;28937;51.160;4.146;2023-04-21T03:20:40;15.27;;;13.90;;
43345;SDS011;28937;51.160;4.146;2023-04-21T03:23:06;16.48;;;14.93;;
43345;SDS011;28937;51.160;4.146;2023-04-21T03:25:31;15.13;;;13.82;;
43345;SDS011;28937;51.160;4.146;2023-04-21T03:27:57;14.93;;;13.63;;
43345;SDS011;28937;51.160;4.146;2023-04-21T03:30:23;16.27;;;14.88;;
43345;SDS011;28937;51.160;4.146;2023-04-21T03:32:50;14.35;;;13.05;;
43345;SDS011;28937;51.160;4.146;2023-04-21T03:35:16;13.95;;;12.75;;
43345;SDS011;28937;51.160;4.146;2023-04-21T03:37:41;16.77;;;15.27;;
43345;SDS011;28937;51.160;4.146;2023-04-21T03:40:07;15.80;;;14.32;;
43345;SDS011;28937;51.160;4.146;2023-04-21T03:42:33;15.55;;;14.05;;
43345;SDS011;28937;51.160;4.146;2023-04-21T03:45:03;15.00;;;13.70;;
43345;SDS011;28937;51.160;4.146;2023-04-21T03:47:29;15.07;;;13.77;;
43345;SDS011;28937;51.160;4.146;2023-04-21T03:49:55;15.40;;;13.93;;
43345;SDS011;28937;51.160;4.146;2023-04-21T03:52:21;16.42;;;14.93;;
43345;SDS011;28937;51.160;4.146;2023-04-21T03:54:47;14.98;;;13.68;;
43345;SDS011;28937;51.160;4.146;2023-04-21T03:57:13;16.85;;;15.32;;
43345;SDS011;28937;51.160;4.146;2023-04-21T03:59:39;15.40;;;14.00;;
43345;SDS011;28937;51.160;4.146;2023-04-21T04:02:05;14.85;;;13.55;;
43345;SDS011;28937;51.160;4.146;2023-04-21T04:04:30;17.60;;;15.90;;
43345;SDS011;28937;51.160;4.146;2023-04-21T04:06:56;14.50;;;13.18;;
43345;SDS011;28937;51.160;4.146;2023-04-21T04:09:22;12.77;;;11.68;;
43345;SDS011;28937;51.160;4.146;2023-04-21T04:11:48;12.90;;;11.82;;
43345;SDS011;28937;51.160;4.146;2023-04-21T04:14:13;15.73;;;14.30;;
43345;SDS011;28937;51.160;4.146;2023-04-21T04:16:39;15.95;;;14.52;;
43345;SDS011;28937;51.160;4.146;2023-04-21T04:19:05;15.30;;;14.00;;
43345;SDS011;28937;51.160;4.146;2023-04-21T04:21:31;17.05;;;15.40;;
43345;SDS011;28937;51.160;4.146;2023-04-21T04:23:57;16.08;;;14.43;;
43345;SDS011;28937;51.160;4.146;2023-04-21T04:26:24;14.30;;;13.10;;
43345;SDS011;28937;51.160;4.146;2023-04-21T04:28:53;15.50;;;14.00;;
43345;SDS011;28937;51.160;4.146;2023-04-21T04:31:23;26.30;;;23.67;;
43345;SDS011;28937;51.160;4.146;2023-04-21T04:33:49;26.90;;;24.10;;
43345;SDS011;28937;51.160;4.146;2023-04-21T04:36:15;29.42;;;26.52;;
43345;SDS011;28937;51.160;4.146;2023-04-21T04:38:41;28.20;;;25.58;;
43345;SDS011;28937;51.160;4.146;2023-04-21T04:41:07;18.33;;;16.50;;
43345;SDS011;28937;51.160;4.146;2023-04-21T04:43:33;15.77;;;14.18;;
43345;SDS011;28937;51.160;4.146;2023-04-21T04:46:03;17.40;;;15.60;;
43345;SDS011;28937;51.160;4.146;2023-04-21T04:48:29;17.52;;;15.93;;
43345;SDS011;28937;51.160;4.146;2023-04-21T04:50:55;17.98;;;16.17;;
43345;SDS011;28937;51.160;4.146;2023-04-21T04:53:20;17.20;;;15.52;;
43345;SDS011;28937;51.160;4.146;2023-04-21T04:55:46;15.75;;;14.25;;
43345;SDS011;28937;51.160;4.146;2023-04-21T04:58:11;16.55;;;14.85;;
43345;SDS011;28937;51.160;4.146;2023-04-21T05:00:37;19.70;;;17.80;;
43345;SDS011;28937;51.160;4.146;2023-04-21T05:03:03;17.38;;;15.63;;
43345;SDS011;28937;51.160;4.146;2023-04-21T05:05:29;15.98;;;14.38;;
43345;SDS011;28937;51.160;4.146;2023-04-21T05:07:55;16.58;;;14.15;;
43345;SDS011;28937;51.160;4.146;2023-04-21T05:10:21;18.92;;;17.13;;
43345;SDS011;28937;51.160;4.146;2023-04-21T05:12:47;19.25;;;17.38;;
43345;SDS011;28937;51.160;4.146;2023-04-21T05:15:13;17.77;;;16.10;;
43345;SDS011;28937;51.160;4.146;2023-04-21T05:17:38;19.80;;;17.90;;
43345;SDS011;28937;51.160;4.146;2023-04-21T05:20:05;21.75;;;19.65;;
43345;SDS011;28937;51.160;4.146;2023-04-21T05:22:31;18.63;;;16.73;;
43345;SDS011;28937;51.160;4.146;2023-04-21T05:25:00;20.75;;;18.75;;
43345;SDS011;28937;51.160;4.146;2023-04-21T05:27:26;19.80;;;17.95;;
43345;SDS011;28937;51.160;4.146;2023-04-21T05:29:52;22.63;;;20.52;;
43345;SDS011;28937;51.160;4.146;2023-04-21T05:32:19;21.67;;;19.67;;
43345;SDS011;28937;51.160;4.146;2023-04-21T05:34:45;24.33;;;22.13;;
43345;SDS011;28937;51.160;4.146;2023-04-21T05:37:10;23.63;;;21.42;;
43345;SDS011;28937;51.160;4.146;2023-04-21T05:39:36;22.33;;;20.15;;
43345;SDS011;28937;51.160;4.146;2023-04-21T05:42:02;23.92;;;21.65;;
43345;SDS011;28937;51.160;4.146;2023-04-21T05:44:27;27.63;;;25.02;;
43345;SDS011;28937;51.160;4.146;2023-04-21T05:46:53;27.05;;;24.45;;
43345;SDS011;28937;51.160;4.146;2023-04-21T05:49:19;25.23;;;22.92;;
43345;SDS011;28937;51.160;4.146;2023-04-21T05:51:45;25.90;;;23.50;;
43345;SDS011;28937;51.160;4.146;2023-04-21T05:54:10;26.80;;;24.17;;
43345;SDS011;28937;51.160;4.146;2023-04-21T05:56:36;27.00;;;24.60;;
43345;SDS011;28937;51.160;4.146;2023-04-21T05:59:02;26.65;;;24.17;;
43345;SDS011;28937;51.160;4.146;2023-04-21T06:01:28;27.33;;;24.75;;
43345;SDS011;28937;51.160;4.146;2023-04-21T06:03:53;24.92;;;22.58;;
43345;SDS011;28937;51.160;4.146;2023-04-21T06:06:19;32.92;;;29.83;;
43345;SDS011;28937;51.160;4.146;2023-04-21T06:08:44;31.67;;;28.48;;
43345;SDS011;28937;51.160;4.146;2023-04-21T06:11:10;32.22;;;29.10;;
43345;SDS011;28937;51.160;4.146;2023-04-21T06:13:36;25.30;;;22.90;;
43345;SDS011;28937;51.160;4.146;2023-04-21T06:16:01;31.88;;;28.98;;
43345;SDS011;28937;51.160;4.146;2023-04-21T06:18:27;30.73;;;27.85;;
43345;SDS011;28937;51.160;4.146;2023-04-21T06:20:53;31.33;;;28.30;;
43345;SDS011;28937;51.160;4.146;2023-04-21T06:23:19;30.98;;;27.77;;
43345;SDS011;28937;51.160;4.146;2023-04-21T06:25:46;29.75;;;26.92;;
43345;SDS011;28937;51.160;4.146;2023-04-21T06:28:11;30.63;;;27.67;;
43345;SDS011;28937;51.160;4.146;2023-04-21T06:30:37;30.27;;;27.48;;
43345;SDS011;28937;51.160;4.146;2023-04-21T06:33:03;28.52;;;25.73;;
43345;SDS011;28937;51.160;4.146;2023-04-21T06:35:30;29.40;;;26.20;;
43345;SDS011;28937;51.160;4.146;2023-04-21T06:37:56;27.08;;;24.58;;
43345;SDS011;28937;51.160;4.146;2023-04-21T06:40:21;27.33;;;24.83;;
43345;SDS011;28937;51.160;4.146;2023-04-21T06:42:48;26.75;;;24.35;;
43345;SDS011;28937;51.160;4.146;2023-04-21T06:45:14;25.05;;;22.65;;
43345;SDS011;28937;51.160;4.146;2023-04-21T06:47:40;26.58;;;23.98;;
43345;SDS011;28937;51.160;4.146;2023-04-21T06:50:06;27.02;;;24.58;;
43345;SDS011;28937;51.160;4.146;2023-04-21T06:52:32;26.45;;;23.80;;
43345;SDS011;28937;51.160;4.146;2023-04-21T06:54:58;26.85;;;24.35;;
43345;SDS011;28937;51.160;4.146;2023-04-21T06:57:24;26.85;;;24.30;;
43345;SDS011;28937;51.160;4.146;2023-04-21T06:59:49;26.95;;;24.23;;
43345;SDS011;28937;51.160;4.146;2023-04-21T07:02:15;25.95;;;23.27;;
43345;SDS011;28937;51.160;4.146;2023-04-21T07:04:40;26.88;;;24.15;;
43345;SDS011;28937;51.160;4.146;2023-04-21T07:07:06;26.30;;;23.80;;
43345;SDS011;28937;51.160;4.146;2023-04-21T07:09:32;27.88;;;25.27;;
43345;SDS011;28937;51.160;4.146;2023-04-21T07:11:58;25.05;;;22.55;;
43345;SDS011;28937;51.160;4.146;2023-04-21T07:14:24;26.15;;;23.60;;
43345;SDS011;28937;51.160;4.146;2023-04-21T07:16:50;24.60;;;22.38;;
43345;SDS011;28937;51.160;4.146;2023-04-21T07:19:16;24.80;;;22.48;;
43345;SDS011;28937;51.160;4.146;2023-04-21T07:21:41;25.42;;;22.83;;
43345;SDS011;28937;51.160;4.146;2023-04-21T07:24:07;25.17;;;22.73;;
43345;SDS011;28937;51.160;4.146;2023-04-21T07:26:33;23.73;;;21.52;;
43345;SDS011;28937;51.160;4.146;2023-04-21T07:28:58;24.27;;;21.95;;
43345;SDS011;28937;51.160;4.146;2023-04-21T07:31:24;19.33;;;17.15;;
43345;SDS011;28937;51.160;4.146;2023-04-21T07:33:50;16.10;;;14.52;;
43345;SDS011;28937;51.160;4.146;2023-04-21T07:36:15;22.35;;;20.25;;
43345;SDS011;28937;51.160;4.146;2023-04-21T07:38:42;23.73;;;21.35;;
43345;SDS011;28937;51.160;4.146;2023-04-21T07:41:11;23.10;;;20.98;;
43345;SDS011;28937;51.160;4.146;2023-04-21T07:43:37;23.77;;;21.67;;
43345;SDS011;28937;51.160;4.146;2023-04-21T07:46:04;24.00;;;21.80;;
43345;SDS011;28937;51.160;4.146;2023-04-21T07:48:30;22.20;;;20.10;;
43345;SDS011;28937;51.160;4.146;2023-04-21T07:50:56;21.58;;;19.48;;
43345;SDS011;28937;51.160;4.146;2023-04-21T07:53:25;23.42;;;20.67;;
43345;SDS011;28937;51.160;4.146;2023-04-21T07:55:51;23.27;;;20.35;;
43345;SDS011;28937;51.160;4.146;2023-04-21T07:58:17;20.60;;;18.70;;
43345;SDS011;28937;51.160;4.146;2023-04-21T08:00:43;21.52;;;19.27;;
43345;SDS011;28937;51.160;4.146;2023-04-21T08:03:08;22.35;;;20.15;;
43345;SDS011;28937;51.160;4.146;2023-04-21T08:05:34;22.10;;;20.00;;
43345;SDS011;28937;51.160;4.146;2023-04-21T08:08:00;22.02;;;19.92;;
43345;SDS011;28937;51.160;4.146;2023-04-21T08:10:25;22.02;;;19.88;;
43345;SDS011;28937;51.160;4.146;2023-04-21T08:12:51;21.98;;;19.90;;
43345;SDS011;28937;51.160;4.146;2023-04-21T08:15:17;23.58;;;21.38;;
43345;SDS011;28937;51.160;4.146;2023-04-21T08:17:43;20.75;;;18.75;;
43345;SDS011;28937;51.160;4.146;2023-04-21T08:20:09;20.42;;;18.63;;
43345;SDS011;28937;51.160;4.146;2023-04-21T08:22:35;19.75;;;17.85;;
43345;SDS011;28937;51.160;4.146;2023-04-21T08:25:00;20.15;;;18.25;;
43345;SDS011;28937;51.160;4.146;2023-04-21T08:27:27;19.73;;;17.83;;
43345;SDS011;28937;51.160;4.146;2023-04-21T08:29:53;22.83;;;18.58;;
43345;SDS011;28937;51.160;4.146;2023-04-21T08:32:18;18.13;;;16.33;;
43345;SDS011;28937;51.160;4.146;2023-04-21T08:34:48;18.50;;;16.80;;
43345;SDS011;28937;51.160;4.146;2023-04-21T08:37:15;18.27;;;16.48;;
43345;SDS011;28937;51.160;4.146;2023-04-21T08:39:42;17.13;;;15.52;;
43345;SDS011;28937;51.160;4.146;2023-04-21T08:42:08;17.67;;;15.98;;
43345;SDS011;28937;51.160;4.146;2023-04-21T08:44:34;17.45;;;15.85;;
43345;SDS011;28937;51.160;4.146;2023-04-21T08:47:00;17.58;;;15.77;;
43345;SDS011;28937;51.160;4.146;2023-04-21T08:49:27;13.65;;;12.25;;
43345;SDS011;28937;51.160;4.146;2023-04-21T08:51:53;16.50;;;14.75;;
43345;SDS011;28937;51.160;4.146;2023-04-21T08:54:19;17.70;;;16.00;;
43345;SDS011;28937;51.160;4.146;2023-04-21T08:56:46;18.15;;;16.33;;
43345;SDS011;28937;51.160;4.146;2023-04-21T08:59:12;18.63;;;16.85;;
43345;SDS011;28937;51.160;4.146;2023-04-21T09:02:23;16.52;;;14.93;;
43345;SDS011;28937;51.160;4.146;2023-04-21T09:04:30;16.90;;;15.18;;
43345;SDS011;28937;51.160;4.146;2023-04-21T09:06:56;14.30;;;13.00;;
43345;SDS011;28937;51.160;4.146;2023-04-21T09:09:22;13.60;;;12.40;;
43345;SDS011;28937;51.160;4.146;2023-04-21T09:11:54;12.27;;;11.07;;
43345;SDS011;28937;51.160;4.146;2023-04-21T09:14:33;12.85;;;11.18;;
43345;SDS011;28937;51.160;4.146;2023-04-21T09:16:59;15.13;;;13.65;;
43345;SDS011;28937;51.160;4.146;2023-04-21T09:19:29;16.20;;;14.70;;
43345;SDS011;28937;51.160;4.146;2023-04-21T09:21:57;16.30;;;14.75;;
43345;SDS011;28937;51.160;4.146;2023-04-21T09:24:24;14.25;;;12.85;;
43345;SDS011;28937;51.160;4.146;2023-04-21T09:26:50;16.98;;;14.65;;
43345;SDS011;28937;51.160;4.146;2023-04-21T09:29:17;15.93;;;14.43;;
43345;SDS011;28937;51.160;4.146;2023-04-21T09:31:45;15.57;;;14.15;;
43345;SDS011;28937;51.160;4.146;2023-04-21T09:34:16;12.18;;;10.98;;
43345;SDS011;28937;51.160;4.146;2023-04-21T09:36:44;12.80;;;11.60;;
43345;SDS011;28937;51.160;4.146;2023-04-21T09:39:10;8.23;;;7.50;;
43345;SDS011;28937;51.160;4.146;2023-04-21T09:41:36;12.20;;;11.07;;
43345;SDS011;28937;51.160;4.146;2023-04-21T09:44:01;12.10;;;10.95;;
43345;SDS011;28937;51.160;4.146;2023-04-21T09:46:29;18.38;;;12.82;;
43345;SDS011;28937;51.160;4.146;2023-04-21T09:49:02;15.52;;;11.70;;
43345;SDS011;28937;51.160;4.146;2023-04-21T09:51:28;13.13;;;11.82;;
43345;SDS011;28937;51.160;4.146;2023-04-21T09:53:58;12.25;;;10.32;;
43345;SDS011;28937;51.160;4.146;2023-04-21T09:56:28;12.10;;;10.77;;
43345;SDS011;28937;51.160;4.146;2023-04-21T09:58:57;7.97;;;7.28;;
43345;SDS011;28937;51.160;4.146;2023-04-21T10:01:26;9.38;;;8.48;;
43345;SDS011;28937;51.160;4.146;2023-04-21T10:03:54;12.65;;;11.45;;
43345;SDS011;28937;51.160;4.146;2023-04-21T10:06:20;14.15;;;12.68;;
43345;SDS011;28937;51.160;4.146;2023-04-21T10:08:47;14.50;;;13.00;;
43345;SDS011;28937;51.160;4.146;2023-04-21T10:11:15;8.82;;;7.93;;
43345;SDS011;28937;51.160;4.146;2023-04-21T10:13:41;10.50;;;9.60;;
43345;SDS011;28937;51.160;4.146;2023-04-21T10:16:08;12.60;;;11.40;;
43345;SDS011;28937;51.160;4.146;2023-04-21T10:18:38;12.70;;;11.40;;
43345;SDS011;28937;51.160;4.146;2023-04-21T10:21:08;13.77;;;11.65;;
43345;SDS011;28937;51.160;4.146;2023-04-21T10:29:21;13.80;;;12.35;;
43345;SDS011;28937;51.160;4.146;2023-04-21T10:36:29;10.70;;;9.60;;
43345;SDS011;28937;51.160;4.146;2023-04-21T10:38:55;15.27;;;13.68;;
43345;SDS011;28937;51.160;4.146;2023-04-21T10:41:25;13.43;;;12.10;;
43345;SDS011;28937;51.160;4.146;2023-04-21T10:43:52;12.77;;;11.40;;
43345;SDS011;28937;51.160;4.146;2023-04-21T10:49:26;13.75;;;12.10;;
43345;SDS011;28937;51.160;4.146;2023-04-21T10:54:23;14.57;;;12.80;;
43345;SDS011;28937;51.160;4.146;2023-04-21T10:56:53;13.35;;;12.05;;
43345;SDS011;28937;51.160;4.146;2023-04-21T10:59:20;12.38;;;11.07;;
43345;SDS011;28937;51.160;4.146;2023-04-21T11:01:46;14.82;;;12.45;;
43345;SDS011;28937;51.160;4.146;2023-04-21T11:04:12;11.57;;;10.38;;
43345;SDS011;28937;51.160;4.146;2023-04-21T11:06:39;12.35;;;11.15;;
43345;SDS011;28937;51.160;4.146;2023-04-21T11:09:05;13.35;;;11.88;;
43345;SDS011;28937;51.160;4.146;2023-04-21T11:11:31;12.60;;;11.30;;
43345;SDS011;28937;51.160;4.146;2023-04-21T11:13:59;11.65;;;10.52;;
43345;SDS011;28937;51.160;4.146;2023-04-21T11:16:25;11.60;;;10.45;;
43345;SDS011;28937;51.160;4.146;2023-04-21T11:18:51;10.50;;;9.07;;
43345;SDS011;28937;51.160;4.146;2023-04-21T11:21:17;11.85;;;8.15;;
43345;SDS011;28937;51.160;4.146;2023-04-21T11:23:47;9.52;;;8.63;;
43345;SDS011;28937;51.160;4.146;2023-04-21T11:26:14;10.80;;;9.70;;
43345;SDS011;28937;51.160;4.146;2023-04-21T11:28:40;10.45;;;8.95;;
43345;SDS011;28937;51.160;4.146;2023-04-21T11:31:06;8.55;;;7.72;;
43345;SDS011;28937;51.160;4.146;2023-04-21T11:33:38;9.15;;;8.23;;
43345;SDS011;28937;51.160;4.146;2023-04-21T11:36:04;12.18;;;11.02;;
43345;SDS011;28937;51.160;4.146;2023-04-21T11:38:37;12.20;;;10.98;;
43345;SDS011;28937;51.160;4.146;2023-04-21T11:41:05;12.38;;;11.07;;
43345;SDS011;28937;51.160;4.146;2023-04-21T11:43:33;12.50;;;11.20;;
43345;SDS011;28937;51.160;4.146;2023-04-21T11:48:46;11.88;;;10.68;;
43345;SDS011;28937;51.160;4.146;2023-04-21T11:51:26;12.30;;;11.00;;
43345;SDS011;28937;51.160;4.146;2023-04-21T11:54:00;11.10;;;10.00;;
43345;SDS011;28937;51.160;4.146;2023-04-21T11:56:26;13.88;;;10.38;;
43345;SDS011;28937;51.160;4.146;2023-04-21T11:58:51;11.65;;;10.50;;
43345;SDS011;28937;51.160;4.146;2023-04-21T12:01:18;12.20;;;9.68;;
43345;SDS011;28937;51.160;4.146;2023-04-21T12:03:54;11.30;;;10.20;;
43345;SDS011;28937;51.160;4.146;2023-04-21T12:06:23;13.88;;;10.48;;
43345;SDS011;28937;51.160;4.146;2023-04-21T12:08:59;11.65;;;10.45;;
43345;SDS011;28937;51.160;4.146;2023-04-21T12:11:29;11.90;;;10.68;;
43345;SDS011;28937;51.160;4.146;2023-04-21T12:13:56;11.10;;;9.82;;
43345;SDS011;28937;51.160;4.146;2023-04-21T12:16:25;11.93;;;10.73;;
43345;SDS011;28937;51.160;4.146;2023-04-21T12:18:52;11.13;;;10.02;;
43345;SDS011;28937;51.160;4.146;2023-04-21T12:21:18;11.75;;;10.65;;
43345;SDS011;28937;51.160;4.146;2023-04-21T12:23:44;13.80;;;12.40;;
43345;SDS011;28937;51.160;4.146;2023-04-21T12:26:10;10.95;;;9.95;;
43345;SDS011;28937;51.160;4.146;2023-04-21T12:28:36;17.60;;;13.85;;
43345;SDS011;28937;51.160;4.146;2023-04-21T12:31:02;12.60;;;11.23;;
43345;SDS011;28937;51.160;4.146;2023-04-21T12:33:28;18.92;;;14.25;;
43345;SDS011;28937;51.160;4.146;2023-04-21T12:35:54;28.95;;;14.93;;
43345;SDS011;28937;51.160;4.146;2023-04-21T12:38:20;11.82;;;7.97;;
43345;SDS011;28937;51.160;4.146;2023-04-21T12:40:46;15.00;;;12.52;;
43345;SDS011;28937;51.160;4.146;2023-04-21T12:43:12;12.82;;;11.52;;
43345;SDS011;28937;51.160;4.146;2023-04-21T12:45:37;12.45;;;11.25;;
43345;SDS011;28937;51.160;4.146;2023-04-21T12:48:03;10.20;;;9.10;;
43345;SDS011;28937;51.160;4.146;2023-04-21T12:50:29;11.15;;;9.98;;
43345;SDS011;28937;51.160;4.146;2023-04-21T12:52:54;12.80;;;11.70;;
43345;SDS011;28937;51.160;4.146;2023-04-21T12:55:20;11.90;;;10.70;;
43345;SDS011;28937;51.160;4.146;2023-04-21T12:57:47;10.02;;;9.02;;
43345;SDS011;28937;51.160;4.146;2023-04-21T13:00:13;13.27;;;12.00;;
43345;SDS011;28937;51.160;4.146;2023-04-21T13:02:40;13.70;;;12.30;;
43345;SDS011;28937;51.160;4.146;2023-04-21T13:05:06;15.80;;;12.65;;
43345;SDS011;28937;51.160;4.146;2023-04-21T13:07:34;16.25;;;14.55;;
43345;SDS011;28937;51.160;4.146;2023-04-21T13:10:00;14.90;;;13.43;;
43345;SDS011;28937;51.160;4.146;2023-04-21T13:12:26;15.68;;;14.07;;
43345;SDS011;28937;51.160;4.146;2023-04-21T13:14:52;14.25;;;12.82;;
43345;SDS011;28937;51.160;4.146;2023-04-21T13:17:18;15.52;;;13.05;;
43345;SDS011;28937;51.160;4.146;2023-04-21T13:19:43;12.77;;;11.48;;
43345;SDS011;28937;51.160;4.146;2023-04-21T13:22:09;12.05;;;10.93;;
43345;SDS011;28937;51.160;4.146;2023-04-21T13:24:35;12.45;;;10.20;;
43345;SDS011;28937;51.160;4.146;2023-04-21T13:27:01;7.10;;;5.63;;
43345;SDS011;28937;51.160;4.146;2023-04-21T13:29:26;9.23;;;6.47;;
43345;SDS011;28937;51.160;4.146;2023-04-21T13:31:58;12.30;;;9.57;;
43345;SDS011;28937;51.160;4.146;2023-04-21T13:34:25;8.77;;;7.88;;
43345;SDS011;28937;51.160;4.146;2023-04-21T13:36:51;10.40;;;9.27;;
43345;SDS011;28937;51.160;4.146;2023-04-21T13:39:17;9.80;;;8.30;;
43345;SDS011;28937;51.160;4.146;2023-04-21T13:41:42;8.18;;;7.43;;
43345;SDS011;28937;51.160;4.146;2023-04-21T13:44:08;8.68;;;7.50;;
43345;SDS011;28937;51.160;4.146;2023-04-21T13:46:34;9.27;;;7.50;;
43345;SDS011;28937;51.160;4.146;2023-04-21T13:48:59;7.85;;;6.28;;
43345;SDS011;28937;51.160;4.146;2023-04-21T13:51:25;8.57;;;7.47;;
43345;SDS011;28937;51.160;4.146;2023-04-21T13:53:50;7.28;;;6.57;;
43345;SDS011;28937;51.160;4.146;2023-04-21T13:56:16;8.40;;;7.57;;
43345;SDS011;28937;51.160;4.146;2023-04-21T13:58:42;8.07;;;7.32;;
43345;SDS011;28937;51.160;4.146;2023-04-21T14:01:08;7.40;;;6.70;;
43345;SDS011;28937;51.160;4.146;2023-04-21T14:03:33;6.55;;;5.90;;
43345;SDS011;28937;51.160;4.146;2023-04-21T14:05:59;6.90;;;6.18;;
43345;SDS011;28937;51.160;4.146;2023-04-21T14:08:24;9.50;;;7.78;;
43345;SDS011;28937;51.160;4.146;2023-04-21T14:10:50;8.55;;;7.60;;
43345;SDS011;28937;51.160;4.146;2023-04-21T14:13:16;9.02;;;8.13;;
43345;SDS011;28937;51.160;4.146;2023-04-21T14:15:42;8.43;;;7.32;;
43345;SDS011;28937;51.160;4.146;2023-04-21T14:18:08;8.25;;;7.45;;
43345;SDS011;28937;51.160;4.146;2023-04-21T14:20:33;6.72;;;6.03;;
43345;SDS011;28937;51.160;4.146;2023-04-21T14:22:59;6.97;;;6.38;;
43345;SDS011;28937;51.160;4.146;2023-04-21T14:25:25;8.80;;;5.85;;
43345;SDS011;28937;51.160;4.146;2023-04-21T14:27:50;7.72;;;6.93;;
43345;SDS011;28937;51.160;4.146;2023-04-21T14:30:16;7.60;;;6.63;;
43345;SDS011;28937;51.160;4.146;2023-04-21T14:32:41;7.93;;;6.88;;
43345;SDS011;28937;51.160;4.146;2023-04-21T14:35:10;8.77;;;6.43;;
43345;SDS011;28937;51.160;4.146;2023-04-21T14:37:35;11.43;;;5.60;;
43345;SDS011;28937;51.160;4.146;2023-04-21T14:40:01;6.40;;;5.60;;
43345;SDS011;28937;51.160;4.146;2023-04-21T14:42:28;7.32;;;5.55;;